Time;durP1;ratioP1;P1;durP2;ratioP2;P2;SDS_P1;SDS_P2;PMS_P1;PMS_P2;Temp;Humidity;BMP_temperature;BMP_pressure;BME280_temperature;BME280_humidity;BME280_pressure;Samples;Min_cycle;Max_cycle;Signal;HPM_P1;HPM_P2
2021/06/28 00:00:20;;;;;;;0.10;0.10;;;17.80;99.90;;;;;;4992137;28;20204;-77
2021/06/28 00:02:45;;;;;;;0.10;0.10;;;17.90;99.90;;;;;;5008746;28;20175;-77
2021/06/28 00:05:13;;;;;;;0.10;0.10;;;17.90;99.90;;;;;;5008861;28;20590;-76
2021/06/28 00:07:38;;;;;;;0.10;0.10;;;17.90;99.90;;;;;;5008196;28;20203;-76
2021/06/28 00:10:06;;;;;;;0.10;0.10;;;17.80;99.90;;;;;;4992031;28;20682;-76
2021/06/28 00:12:31;;;;;;;0.20;0.20;;;17.90;99.90;;;;;;5008490;28;20187;-77
2021/06/28 00:14:57;;;;;;;0.27;0.20;;;17.80;99.90;;;;;;5008204;28;20177;-76
2021/06/28 00:17:24;;;;;;;1.07;0.57;;;18.00;99.90;;;;;;4991816;28;20640;-77
2021/06/28 00:19:49;;;;;;;0.10;0.10;;;17.90;99.90;;;;;;5008141;28;20176;-76
2021/06/28 00:22:16;;;;;;;0.10;0.10;;;18.00;99.90;;;;;;4991749;28;20802;-76
2021/06/28 00:24:41;;;;;;;0.33;0.20;;;17.90;99.90;;;;;;4993138;28;20226;-77
2021/06/28 00:27:07;;;;;;;0.20;0.20;;;18.00;99.90;;;;;;5007924;28;20266;-76
2021/06/28 00:29:32;;;;;;;0.20;0.20;;;18.00;99.90;;;;;;5008299;28;20659;-76
2021/06/28 00:31:58;;;;;;;0.10;0.10;;;18.10;99.90;;;;;;5007368;28;20251;-76
2021/06/28 00:34:23;;;;;;;0.10;0.10;;;18.10;99.90;;;;;;4991812;28;20180;-76
2021/06/28 00:36:49;;;;;;;0.40;0.30;;;17.90;99.90;;;;;;4991874;28;20192;-76
2021/06/28 00:39:15;;;;;;;0.10;0.10;;;18.00;99.90;;;;;;5008147;28;20180;-77
2021/06/28 00:41:41;;;;;;;0.63;0.23;;;18.10;99.90;;;;;;5008136;28;20517;-76
2021/06/28 00:44:06;;;;;;;0.10;0.10;;;18.10;99.90;;;;;;4991551;28;20180;-76
2021/06/28 00:46:32;;;;;;;0.20;0.20;;;18.10;99.90;;;;;;4991474;28;20192;-77
2021/06/28 00:48:58;;;;;;;0.10;0.10;;;18.20;99.90;;;;;;4992988;28;20215;-77
2021/06/28 00:51:24;;;;;;;0.10;0.10;;;18.20;99.90;;;;;;5007833;28;20242;-77
2021/06/28 00:53:50;;;;;;;1.53;0.27;;;18.30;99.90;;;;;;5008544;28;20181;-77
2021/06/28 00:56:16;;;;;;;0.20;0.10;;;18.10;99.90;;;;;;5007968;28;20650;-77
2021/06/28 00:58:42;;;;;;;0.30;0.30;;;18.20;99.90;;;;;;4991496;28;20239;-77
2021/06/28 01:01:08;;;;;;;0.10;0.10;;;18.20;99.90;;;;;;4991446;28;20291;-77
2021/06/28 01:03:34;;;;;;;0.13;0.10;;;18.20;99.90;;;;;;5008116;28;20263;-77
2021/06/28 01:06:02;;;;;;;0.20;0.20;;;18.20;99.90;;;;;;5008097;28;20184;-77
2021/06/28 01:08:28;;;;;;;0.17;0.17;;;18.20;99.90;;;;;;4992664;28;20227;-76
2021/06/28 01:10:53;;;;;;;0.23;0.20;;;18.20;99.90;;;;;;5008025;28;20238;-77
2021/06/28 01:13:19;;;;;;;0.10;0.10;;;18.30;99.90;;;;;;5007737;28;20180;-77
2021/06/28 01:15:45;;;;;;;0.73;0.33;;;18.20;99.90;;;;;;4991550;28;20619;-77
2021/06/28 01:18:10;;;;;;;0.10;0.10;;;18.20;99.90;;;;;;4991310;28;20558;-77
2021/06/28 01:20:36;;;;;;;0.10;0.10;;;18.20;99.90;;;;;;5007692;28;20200;-77
2021/06/28 01:23:13;;;;;;;0.10;0.10;;;18.30;99.90;;;;;;5007995;28;20235;-77
2021/06/28 01:25:38;;;;;;;0.30;0.30;;;18.20;99.90;;;;;;5007814;28;20548;-77
2021/06/28 01:28:04;;;;;;;0.40;0.20;;;18.30;99.90;;;;;;4991447;28;20211;-77
2021/06/28 01:30:30;;;;;;;0.10;0.10;;;18.30;99.90;;;;;;4991417;28;20203;-77
2021/06/28 01:32:56;;;;;;;0.20;0.20;;;18.30;99.90;;;;;;4991561;28;20266;-77
2021/06/28 01:35:22;;;;;;;0.30;0.20;;;18.20;99.90;;;;;;5007968;28;20235;-77
2021/06/28 01:37:48;;;;;;;0.30;0.30;;;18.30;99.90;;;;;;4991665;28;20271;-77
2021/06/28 01:40:14;;;;;;;0.20;0.20;;;18.20;99.90;;;;;;4991621;28;20660;-77
2021/06/28 01:42:40;;;;;;;0.07;0.07;;;18.20;99.90;;;;;;5066968;23;20231;-74
2021/06/28 01:45:11;;;;;;;0.13;0.13;;;18.20;99.90;;;;;;5017707;28;20179;-74
2021/06/28 01:47:37;;;;;;;0.30;0.20;;;18.20;99.90;;;;;;5033607;28;20230;-75
2021/06/28 01:50:06;;;;;;;0.27;0.20;;;18.20;99.90;;;;;;5017518;28;20199;-75
2021/06/28 01:52:32;;;;;;;0.30;0.20;;;18.20;99.90;;;;;;5031411;28;20201;-75
2021/06/28 01:54:58;;;;;;;0.77;0.30;;;18.20;99.90;;;;;;5033900;28;20179;-75
2021/06/28 01:57:23;;;;;;;0.13;0.10;;;18.30;99.90;;;;;;5034805;28;20174;-74
2021/06/28 01:59:49;;;;;;;0.47;0.27;;;18.30;99.90;;;;;;5033837;28;20175;-74
2021/06/28 02:02:14;;;;;;;0.30;0.20;;;18.20;99.90;;;;;;5033824;28;20195;-75
2021/06/28 02:04:40;;;;;;;0.20;0.20;;;18.20;99.90;;;;;;5035036;28;20183;-75
2021/06/28 02:07:10;;;;;;;0.20;0.20;;;18.20;99.90;;;;;;5034484;28;20182;-73
2021/06/28 02:09:36;;;;;;;0.20;0.20;;;18.20;99.90;;;;;;5033598;28;20167;-73
2021/06/28 02:12:02;;;;;;;0.33;0.33;;;18.20;99.90;;;;;;5016304;28;20697;-73
2021/06/28 02:14:28;;;;;;;0.20;0.20;;;18.20;99.90;;;;;;5033701;28;20254;-72
2021/06/28 02:16:53;;;;;;;0.20;0.20;;;18.30;99.90;;;;;;5033240;28;20317;-73
2021/06/28 02:19:19;;;;;;;0.20;0.20;;;18.30;99.90;;;;;;5033515;28;20179;-72
2021/06/28 02:21:45;;;;;;;0.77;0.20;;;18.20;99.90;;;;;;5033147;28;20230;-73
2021/06/28 02:24:11;;;;;;;0.20;0.20;;;18.30;99.90;;;;;;5033254;28;20206;-73
2021/06/28 02:26:37;;;;;;;0.30;0.23;;;18.20;99.90;;;;;;5033012;28;20657;-73
2021/06/28 02:29:03;;;;;;;0.27;0.20;;;18.30;99.90;;;;;;5016851;28;20210;-73
2021/06/28 02:31:28;;;;;;;0.10;0.10;;;18.20;99.90;;;;;;5016554;28;20194;-72
2021/06/28 02:33:55;;;;;;;0.20;0.20;;;18.20;99.90;;;;;;5034694;28;20225;-71
2021/06/28 02:36:21;;;;;;;0.20;0.20;;;18.20;99.90;;;;;;5033016;28;20167;-73
2021/06/28 02:38:47;;;;;;;0.40;0.40;;;18.20;99.90;;;;;;5033246;28;20229;-72
2021/06/28 02:41:12;;;;;;;0.20;0.10;;;18.20;99.90;;;;;;5032869;28;20214;-72
2021/06/28 02:43:38;;;;;;;0.10;0.10;;;18.10;99.90;;;;;;5034235;28;20175;-73
2021/06/28 02:46:04;;;;;;;0.10;0.10;;;18.20;99.90;;;;;;5033133;28;20594;-71
2021/06/28 02:48:30;;;;;;;0.10;0.10;;;18.10;99.90;;;;;;5032570;28;20198;-73
2021/06/28 02:50:55;;;;;;;0.30;0.20;;;18.10;99.90;;;;;;5032743;28;20203;-73
2021/06/28 02:53:21;;;;;;;0.17;0.17;;;18.10;99.90;;;;;;5016071;28;20175;-73
2021/06/28 02:55:47;;;;;;;0.10;0.10;;;18.00;99.90;;;;;;5032067;28;20175;-72
2021/06/28 02:58:14;;;;;;;0.17;0.17;;;18.00;99.90;;;;;;5032522;28;20178;-73
2021/06/28 03:00:39;;;;;;;0.10;0.10;;;18.00;99.90;;;;;;5032887;28;20175;-73
2021/06/28 03:03:05;;;;;;;0.20;0.20;;;18.00;99.90;;;;;;5032677;28;20185;-73
2021/06/28 03:05:31;;;;;;;0.73;0.20;;;17.90;99.90;;;;;;5032632;28;20205;-73
2021/06/28 03:07:57;;;;;;;0.20;0.20;;;17.90;99.90;;;;;;5032262;28;20241;-73
2021/06/28 03:10:23;;;;;;;0.30;0.30;;;17.90;99.90;;;;;;5032404;28;20182;-72
2021/06/28 03:12:48;;;;;;;0.20;0.20;;;17.90;99.90;;;;;;5032531;28;20191;-73
2021/06/28 03:15:16;;;;;;;0.20;0.20;;;17.90;99.90;;;;;;5032324;28;20170;-73
2021/06/28 03:17:41;;;;;;;0.50;0.50;;;17.90;99.90;;;;;;5032323;28;20186;-73
2021/06/28 03:20:08;;;;;;;0.13;0.13;;;17.90;99.90;;;;;;5032098;28;20183;-72
2021/06/28 03:22:35;;;;;;;0.20;0.20;;;17.80;99.90;;;;;;5015732;28;20203;-73
2021/06/28 03:25:00;;;;;;;0.30;0.30;;;17.80;99.90;;;;;;5032309;28;20175;-73
2021/06/28 03:27:26;;;;;;;0.10;0.10;;;17.80;99.90;;;;;;5015413;28;20225;-73
2021/06/28 03:29:53;;;;;;;0.40;0.40;;;17.70;99.90;;;;;;5033568;28;20177;-73
2021/06/28 03:32:19;;;;;;;0.10;0.10;;;17.80;99.90;;;;;;5015876;28;20199;-73
2021/06/28 03:34:44;;;;;;;0.10;0.10;;;17.80;99.90;;;;;;5031880;28;20182;-72
2021/06/28 03:37:10;;;;;;;0.30;0.27;;;17.80;99.90;;;;;;5033142;28;20658;-73
2021/06/28 03:39:36;;;;;;;0.30;0.30;;;17.80;99.90;;;;;;5031782;28;20521;-73
2021/06/28 03:42:02;;;;;;;0.10;0.10;;;17.80;99.90;;;;;;5032922;28;20213;-73
2021/06/28 03:44:27;;;;;;;0.07;0.07;;;17.80;99.90;;;;;;5031712;28;20206;-73
2021/06/28 03:46:53;;;;;;;0.10;0.10;;;17.80;99.90;;;;;;5031701;28;20198;-73
2021/06/28 03:49:18;;;;;;;0.10;0.10;;;17.80;99.90;;;;;;5048206;28;20685;-73
2021/06/28 03:51:44;;;;;;;0.27;0.20;;;17.80;99.90;;;;;;5032840;28;20677;-72
2021/06/28 03:54:09;;;;;;;0.10;0.10;;;17.80;99.90;;;;;;5033156;28;20683;-73
2021/06/28 03:56:35;;;;;;;0.20;0.20;;;17.80;99.90;;;;;;5014481;28;20533;-73
2021/06/28 03:59:00;;;;;;;0.13;0.10;;;17.80;99.90;;;;;;5048306;28;20237;-73
2021/06/28 04:01:26;;;;;;;0.40;0.10;;;17.80;99.90;;;;;;5048081;28;20199;-72
2021/06/28 04:03:54;;;;;;;0.50;0.20;;;17.80;99.90;;;;;;5048015;28;20179;-72
2021/06/28 04:06:19;;;;;;;0.10;0.10;;;17.70;99.90;;;;;;5030842;28;20175;-73
2021/06/28 04:08:45;;;;;;;0.10;0.10;;;17.70;99.90;;;;;;5032303;28;20203;-72
2021/06/28 04:11:10;;;;;;;0.43;0.43;;;17.70;99.90;;;;;;5032033;28;20198;-72
2021/06/28 04:13:36;;;;;;;0.27;0.20;;;17.70;99.90;;;;;;5047653;28;20653;-73
2021/06/28 04:16:02;;;;;;;0.30;0.30;;;17.80;99.90;;;;;;5027894;28;20541;-73
2021/06/28 04:18:27;;;;;;;0.10;0.10;;;17.80;99.90;;;;;;5047286;28;20178;-73
2021/06/28 04:20:54;;;;;;;0.23;0.20;;;17.80;99.90;;;;;;5030961;28;20194;-73
2021/06/28 04:23:19;;;;;;;0.10;0.10;;;17.80;99.90;;;;;;5047635;28;20550;-73
2021/06/28 04:25:45;;;;;;;0.30;0.20;;;17.90;99.90;;;;;;5030615;28;20171;-73
2021/06/28 04:28:11;;;;;;;0.10;0.10;;;17.90;99.90;;;;;;5030369;28;20229;-72
2021/06/28 04:30:36;;;;;;;0.83;0.30;;;17.90;99.90;;;;;;5030811;28;20175;-73
2021/06/28 04:33:02;;;;;;;0.47;0.40;;;17.90;99.90;;;;;;5030523;28;20178;-73
2021/06/28 04:35:28;;;;;;;0.20;0.20;;;17.90;99.90;;;;;;5047131;28;20735;-73
2021/06/28 04:37:54;;;;;;;0.27;0.27;;;17.90;99.90;;;;;;5014149;28;20181;-73
2021/06/28 04:40:21;;;;;;;0.27;0.27;;;18.10;99.90;;;;;;5030539;28;20232;-73
2021/06/28 04:42:47;;;;;;;0.27;0.20;;;18.20;99.90;;;;;;5030631;28;20712;-73
2021/06/28 04:45:13;;;;;;;0.13;0.13;;;18.30;99.90;;;;;;5030897;28;20178;-74
2021/06/28 04:47:39;;;;;;;0.23;0.23;;;18.20;99.90;;;;;;5029918;28;20198;-73
2021/06/28 04:50:05;;;;;;;0.20;0.20;;;18.20;99.90;;;;;;5029979;28;20228;-73
2021/06/28 04:52:31;;;;;;;0.30;0.20;;;18.30;99.90;;;;;;5030280;28;20272;-73
2021/06/28 04:54:57;;;;;;;0.20;0.20;;;18.30;99.90;;;;;;5030610;28;20657;-73
2021/06/28 04:57:23;;;;;;;0.20;0.20;;;18.40;99.90;;;;;;5031360;28;20179;-74
2021/06/28 04:59:48;;;;;;;0.40;0.20;;;18.40;99.90;;;;;;5030895;28;20198;-74
2021/06/28 05:02:15;;;;;;;0.20;0.20;;;18.40;99.90;;;;;;5030588;28;20274;-73
2021/06/28 05:04:41;;;;;;;0.43;0.30;;;18.40;99.90;;;;;;5031962;28;20171;-73
2021/06/28 05:07:06;;;;;;;0.60;0.30;;;18.50;99.90;;;;;;5030555;28;20171;-72
2021/06/28 05:09:32;;;;;;;0.20;0.20;;;18.50;99.90;;;;;;5047193;28;20261;-72
2021/06/28 05:11:57;;;;;;;0.40;0.30;;;18.60;99.90;;;;;;5030523;28;20199;-73
2021/06/28 05:14:24;;;;;;;0.30;0.30;;;18.70;99.90;;;;;;5046725;28;20178;-73
2021/06/28 05:16:50;;;;;;;0.10;0.10;;;18.60;99.90;;;;;;5029829;28;20166;-73
2021/06/28 05:19:15;;;;;;;0.20;0.20;;;18.80;99.90;;;;;;5017812;28;20183;-74
2021/06/28 05:21:41;;;;;;;0.30;0.20;;;18.80;99.90;;;;;;5050685;28;20233;-73
2021/06/28 05:24:07;;;;;;;0.30;0.20;;;18.90;99.90;;;;;;5050907;28;20658;-74
2021/06/28 05:26:32;;;;;;;1.17;0.40;;;18.90;99.90;;;;;;5035515;28;20714;-73
2021/06/28 05:28:58;;;;;;;0.27;0.27;;;19.10;99.90;;;;;;5050996;28;20209;-74
2021/06/28 05:31:25;;;;;;;0.57;0.40;;;19.20;99.90;;;;;;5050915;28;20241;-74
2021/06/28 05:33:51;;;;;;;0.50;0.30;;;19.30;99.90;;;;;;5035503;28;20233;-73
2021/06/28 05:36:16;;;;;;;0.83;0.50;;;19.40;99.90;;;;;;5049808;28;20576;-73
2021/06/28 05:38:42;;;;;;;1.13;0.50;;;19.60;99.90;;;;;;5030662;28;20731;-72
2021/06/28 05:41:07;;;;;;;0.30;0.20;;;19.90;99.90;;;;;;5016552;28;20211;-72
2021/06/28 05:43:33;;;;;;;0.77;0.30;;;20.10;99.90;;;;;;5017221;28;20186;-72
2021/06/28 05:45:59;;;;;;;1.33;0.40;;;21.00;99.90;;;;;;5033498;28;20171;-74
2021/06/28 05:48:24;;;;;;;1.23;0.30;;;21.50;99.90;;;;;;5033741;28;20538;-75
2021/06/28 05:50:50;;;;;;;0.50;0.40;;;22.10;99.90;;;;;;5033954;28;20201;-73
2021/06/28 05:53:16;;;;;;;1.13;0.70;;;22.10;99.90;;;;;;5049781;28;20206;-73
2021/06/28 05:55:41;;;;;;;1.13;0.60;;;22.30;99.90;;;;;;5050421;28;20651;-73
2021/06/28 05:58:07;;;;;;;1.43;0.43;;;22.40;99.90;;;;;;5034963;28;20658;-73
2021/06/28 06:00:32;;;;;;;1.50;0.60;;;22.60;99.90;;;;;;5033693;28;20642;-73
2021/06/28 06:03:00;;;;;;;0.90;0.80;;;22.70;99.90;;;;;;5033780;28;20193;-73
2021/06/28 06:05:26;;;;;;;1.17;0.53;;;23.10;99.90;;;;;;5035336;28;20178;-73
2021/06/28 06:07:52;;;;;;;1.27;0.50;;;23.30;99.90;;;;;;5033450;28;20191;-73
2021/06/28 06:10:18;;;;;;;1.50;0.73;;;23.40;99.90;;;;;;5034772;28;20531;-73
2021/06/28 06:12:44;;;;;;;0.80;0.50;;;23.50;99.90;;;;;;5033596;28;20241;-73
2021/06/28 06:15:10;;;;;;;0.90;0.60;;;23.60;99.90;;;;;;5016890;28;20179;-73
2021/06/28 06:17:36;;;;;;;1.00;0.67;;;23.60;99.90;;;;;;5050031;28;20249;-73
2021/06/28 06:20:03;;;;;;;0.57;0.40;;;24.10;99.90;;;;;;5033472;28;20205;-73
2021/06/28 06:22:29;;;;;;;1.07;0.80;;;25.00;99.90;;;;;;5050206;28;20252;-73
2021/06/28 06:24:54;;;;;;;1.48;0.68;;;26.00;99.90;;;;;;5032629;28;20195;-75
2021/06/28 06:27:20;;;;;;;0.73;0.45;;;26.60;99.90;;;;;;5049452;28;20336;-75
2021/06/28 06:29:46;;;;;;;0.98;0.57;;;26.80;99.90;;;;;;5030712;28;20600;-75
2021/06/28 06:32:12;;;;;;;1.00;0.70;;;26.80;99.90;;;;;;5032614;28;20198;-76
2021/06/28 06:34:37;;;;;;;0.95;0.57;;;26.60;99.90;;;;;;5049653;28;20171;-76
2021/06/28 06:37:03;;;;;;;1.38;0.90;;;26.50;99.90;;;;;;5040603;28;20177;-75
2021/06/28 06:39:30;;;;;;;1.30;0.70;;;26.10;99.90;;;;;;5052940;28;20182;-75
2021/06/28 06:41:56;;;;;;;1.00;0.75;;;25.60;99.90;;;;;;5053042;28;20645;-75
2021/06/28 06:44:22;;;;;;;0.57;0.52;;;25.10;99.90;;;;;;5045127;28;20179;-75
2021/06/28 06:46:47;;;;;;;0.80;0.63;;;24.80;99.90;;;;;;5051817;28;20685;-76
2021/06/28 06:49:13;;;;;;;1.00;0.50;;;24.30;99.90;;;;;;5049629;28;20257;-75
2021/06/28 06:51:39;;;;;;;0.70;0.57;;;23.80;99.90;;;;;;5034100;28;20670;-77
2021/06/28 06:54:05;;;;;;;3.80;0.70;;;23.60;99.90;;;;;;5016053;28;20236;-74
2021/06/28 06:56:30;;;;;;;1.20;0.70;;;23.70;99.90;;;;;;5034244;28;20564;-74
2021/06/28 06:58:56;;;;;;;1.80;0.70;;;23.50;99.90;;;;;;5034336;28;20266;-75
2021/06/28 07:01:21;;;;;;;1.55;0.70;;;23.50;99.90;;;;;;5049144;28;20203;-76
2021/06/28 07:03:47;;;;;;;1.03;0.80;;;23.80;99.90;;;;;;5033391;28;20179;-76
2021/06/28 07:06:12;;;;;;;1.30;0.70;;;24.00;99.90;;;;;;5048684;28;20244;-76
2021/06/28 07:08:39;;;;;;;2.00;0.70;;;24.00;99.90;;;;;;5049631;28;20305;-76
2021/06/28 07:11:10;;;;;;;0.95;0.60;;;23.90;99.90;;;;;;5032276;28;20290;-76
2021/06/28 07:13:36;;;;;;;1.40;0.60;;;24.20;99.90;;;;;;5048384;28;20713;-76
2021/06/28 07:16:01;;;;;;;1.20;0.77;;;24.50;99.90;;;;;;5033170;28;20265;-77
2021/06/28 07:18:27;;;;;;;3.00;1.70;;;24.60;99.90;;;;;;5049493;28;20206;-78
2021/06/28 07:20:52;;;;;;;1.07;0.97;;;24.60;99.90;;;;;;5032098;28;20211;-79
2021/06/28 07:23:18;;;;;;;2.23;0.73;;;24.60;99.90;;;;;;5032207;28;20182;-76
2021/06/28 07:25:43;;;;;;;0.98;0.50;;;24.60;99.90;;;;;;5053805;28;20222;-76
2021/06/28 07:28:10;;;;;;;1.85;0.73;;;24.50;99.90;;;;;;5031759;28;20199;-76
2021/06/28 07:30:36;;;;;;;0.63;0.47;;;24.40;99.90;;;;;;5031922;28;20274;-77
2021/06/28 07:33:02;;;;;;;1.10;0.47;;;24.80;99.90;;;;;;5035919;28;20258;-76
2021/06/28 07:35:27;;;;;;;1.00;0.63;;;25.10;99.90;;;;;;5040774;28;20170;-75
2021/06/28 07:37:53;;;;;;;0.88;0.80;;;25.40;99.90;;;;;;5036919;28;20191;-76
2021/06/28 07:40:19;;;;;;;0.90;0.63;;;25.50;99.90;;;;;;5033691;28;20632;-76
2021/06/28 07:42:46;;;;;;;1.20;0.50;;;25.50;99.90;;;;;;5033853;28;20217;-76
2021/06/28 07:45:13;;;;;;;1.63;0.70;;;25.80;99.90;;;;;;5032592;28;20791;-76
2021/06/28 07:47:39;;;;;;;1.23;0.60;;;25.70;99.90;;;;;;5015295;28;20556;-77
2021/06/28 07:50:05;;;;;;;0.52;0.50;;;26.00;99.90;;;;;;5057848;28;20175;-77
2021/06/28 07:52:31;;;;;;;1.85;0.88;;;26.00;99.90;;;;;;5061960;28;20206;-77
2021/06/28 07:54:57;;;;;;;1.13;0.65;;;25.70;99.90;;;;;;5068249;28;20189;-76
2021/06/28 07:57:22;;;;;;;2.10;0.80;;;25.80;99.90;;;;;;5047655;22;20280;-74
2021/06/28 07:59:48;;;;;;;1.10;0.60;;;25.80;99.90;;;;;;4991886;28;20187;-75
2021/06/28 08:02:13;;;;;;;1.17;0.67;;;25.70;99.90;;;;;;4992183;28;20184;-74
2021/06/28 08:04:39;;;;;;;1.05;0.82;;;25.60;99.90;;;;;;4993426;28;20183;-74
2021/06/28 08:07:05;;;;;;;1.08;0.60;;;25.30;99.90;;;;;;4991755;28;20200;-74
2021/06/28 08:09:30;;;;;;;1.52;0.88;;;25.30;99.90;;;;;;4992050;28;20204;-74
2021/06/28 08:11:59;;;;;;;0.90;0.60;;;25.50;99.90;;;;;;4988490;28;20181;-74
2021/06/28 08:14:25;;;;;;;1.10;0.83;;;25.60;99.90;;;;;;4988469;28;20173;-74
2021/06/28 08:16:50;;;;;;;1.07;0.70;;;25.40;99.90;;;;;;4988486;28;20193;-74
2021/06/28 08:19:16;;;;;;;1.10;0.53;;;25.80;99.90;;;;;;4988840;28;20652;-75
2021/06/28 08:21:41;;;;;;;1.10;0.67;;;25.50;99.90;;;;;;4993291;28;20238;-74
2021/06/28 08:24:08;;;;;;;1.70;0.70;;;25.70;99.90;;;;;;4996169;28;20263;-73
2021/06/28 08:26:34;;;;;;;1.10;0.70;;;25.70;99.90;;;;;;4988092;28;20207;-75
2021/06/28 08:29:03;;;;;;;1.57;0.60;;;26.10;99.90;;;;;;4988474;28;20231;-74
2021/06/28 08:31:29;;;;;;;1.52;0.80;;;26.20;99.90;;;;;;4988480;28;20264;-76
2021/06/28 08:33:55;;;;;;;0.93;0.60;;;26.00;99.90;;;;;;4988563;28;20632;-76
2021/06/28 08:36:20;;;;;;;1.33;0.93;;;25.90;99.90;;;;;;4988505;28;20339;-77
2021/06/28 08:38:46;;;;;;;1.20;0.60;;;25.80;99.90;;;;;;4988508;28;20668;-75
2021/06/28 08:41:15;;;;;;;1.37;0.60;;;25.80;99.90;;;;;;5000052;28;20651;-75
2021/06/28 08:43:45;;;;;;;0.95;0.65;;;26.10;99.90;;;;;;5002096;28;20226;-75
2021/06/28 08:46:11;;;;;;;1.73;0.80;;;26.10;99.90;;;;;;5000448;28;20250;-75
2021/06/28 08:48:37;;;;;;;1.13;0.80;;;26.20;99.90;;;;;;4998089;28;20219;-75
2021/06/28 08:51:02;;;;;;;1.15;0.70;;;26.00;99.90;;;;;;4994617;28;20180;-77
2021/06/28 08:53:28;;;;;;;1.25;0.73;;;26.10;99.90;;;;;;4971771;28;20173;-77
2021/06/28 08:55:54;;;;;;;1.52;0.80;;;26.00;99.90;;;;;;4985463;28;20248;-75
2021/06/28 08:58:20;;;;;;;1.75;0.85;;;26.00;99.90;;;;;;5005981;28;20207;-73
2021/06/28 09:00:46;;;;;;;1.27;0.88;;;25.90;99.90;;;;;;4991660;28;20640;-73
2021/06/28 09:03:13;;;;;;;2.38;0.93;;;26.00;99.90;;;;;;5007188;28;20188;-73
2021/06/28 09:06:05;;;;;;;1.25;0.70;;;26.10;99.90;;;;;;5007362;28;20276;-73
2021/06/28 09:08:32;;;;;;;1.27;0.60;;;26.10;99.90;;;;;;4989082;28;20274;-74
2021/06/28 09:10:57;;;;;;;1.75;0.90;;;25.90;99.90;;;;;;5005938;28;20188;-74
2021/06/28 09:13:40;;;;;;;1.40;0.80;;;25.80;99.90;;;;;;4990909;28;20176;-74
2021/06/28 09:16:26;;;;;;;2.05;1.17;;;25.80;99.90;;;;;;5007058;28;20262;-74
2021/06/28 09:18:53;;;;;;;1.27;0.80;;;25.80;99.90;;;;;;4990883;28;20192;-74
2021/06/28 09:21:37;;;;;;;0.80;0.60;;;25.90;99.90;;;;;;5007480;28;20553;-74
2021/06/28 09:24:03;;;;;;;1.45;0.90;;;26.00;99.90;;;;;;5007478;28;20180;-74
2021/06/28 09:26:34;;;;;;;1.98;0.93;;;26.10;99.90;;;;;;5006977;28;20230;-74
2021/06/28 09:29:01;;;;;;;1.33;0.73;;;26.30;99.90;;;;;;5006725;28;20632;-74
2021/06/28 09:31:38;;;;;;;1.38;0.70;;;26.40;99.90;;;;;;5007126;28;20260;-74
2021/06/28 09:34:08;;;;;;;2.20;0.80;;;26.30;99.90;;;;;;5006744;28;20168;-74
2021/06/28 09:36:42;;;;;;;1.20;1.10;;;26.30;99.90;;;;;;5006994;28;20223;-74
2021/06/28 09:39:38;;;;;;;1.02;0.70;;;26.30;99.90;;;;;;5007289;28;20182;-74
2021/06/28 09:42:06;;;;;;;1.48;0.75;;;26.30;99.90;;;;;;5004158;28;20192;-74
2021/06/28 09:44:32;;;;;;;1.58;0.90;;;26.30;99.90;;;;;;4992109;28;20651;-74
2021/06/28 09:47:12;;;;;;;1.92;1.00;;;26.50;99.90;;;;;;5006947;28;20212;-74
2021/06/28 09:49:38;;;;;;;1.40;1.00;;;26.50;99.90;;;;;;5006683;28;20254;-74
2021/06/28 09:52:05;;;;;;;1.15;0.60;;;26.50;99.90;;;;;;5006880;28;20181;-74
2021/06/28 09:54:32;;;;;;;1.10;0.88;;;26.40;99.90;;;;;;5007065;28;20211;-74
2021/06/28 09:56:58;;;;;;;1.25;0.65;;;26.50;99.90;;;;;;4990423;28;20212;-74
2021/06/28 09:59:25;;;;;;;0.93;0.70;;;26.50;99.90;;;;;;4991991;28;20181;-74
2021/06/28 10:02:11;;;;;;;1.83;0.73;;;26.50;99.90;;;;;;4992196;28;20180;-74
2021/06/28 10:04:53;;;;;;;1.30;0.75;;;26.40;99.90;;;;;;5007137;28;20187;-74
2021/06/28 10:07:25;;;;;;;1.55;0.88;;;26.30;99.90;;;;;;5008906;28;20192;-74
2021/06/28 10:10:14;;;;;;;1.15;0.70;;;26.30;99.90;;;;;;5010391;28;20669;-74
2021/06/28 10:12:44;;;;;;;1.27;0.77;;;26.20;99.90;;;;;;5010396;28;20195;-74
2021/06/28 10:15:12;;;;;;;0.77;0.60;;;26.20;99.90;;;;;;4995397;28;20167;-74
2021/06/28 10:17:38;;;;;;;1.23;0.88;;;26.00;99.90;;;;;;5010150;28;20196;-74
2021/06/28 10:20:05;;;;;;;1.42;0.60;;;25.90;99.90;;;;;;5010205;28;20647;-74
2021/06/28 10:22:31;;;;;;;1.40;0.90;;;25.70;99.90;;;;;;5010204;28;20275;-74
2021/06/28 10:24:56;;;;;;;1.00;0.60;;;25.70;99.90;;;;;;5010315;28;20259;-74
2021/06/28 10:27:22;;;;;;;1.98;0.98;;;25.60;99.90;;;;;;5009818;28;20203;-74
2021/06/28 10:29:47;;;;;;;1.45;0.77;;;25.50;99.90;;;;;;5010043;28;20168;-74
2021/06/28 10:32:13;;;;;;;1.00;0.60;;;25.40;99.90;;;;;;5010257;28;20172;-74
2021/06/28 10:34:44;;;;;;;1.58;1.20;;;25.40;99.90;;;;;;5010107;28;20263;-74
2021/06/28 10:37:29;;;;;;;1.48;0.70;;;25.40;99.90;;;;;;5009663;28;20575;-74
2021/06/28 10:39:55;;;;;;;0.90;0.60;;;25.20;99.90;;;;;;4994689;28;20613;-74
2021/06/28 10:42:29;;;;;;;1.07;0.63;;;25.20;99.90;;;;;;5009854;28;20176;-74
2021/06/28 10:44:55;;;;;;;1.27;0.88;;;25.20;99.90;;;;;;5010329;28;20168;-74
2021/06/28 10:47:20;;;;;;;0.98;0.52;;;25.30;99.90;;;;;;4994529;28;20679;-74
2021/06/28 10:49:49;;;;;;;0.95;0.55;;;25.40;99.90;;;;;;5010017;28;20180;-74
2021/06/28 10:52:37;;;;;;;2.22;0.95;;;25.30;99.90;;;;;;4993558;28;20184;-74
2021/06/28 10:55:26;;;;;;;0.85;0.70;;;25.40;99.90;;;;;;4994889;28;20280;-74
2021/06/28 10:57:54;;;;;;;0.93;0.70;;;25.60;99.90;;;;;;4987756;28;20235;-74
2021/06/28 11:01:06;;;;;;;1.58;0.77;;;25.90;99.90;;;;;;5009485;28;20188;-75
2021/06/28 11:03:33;;;;;;;0.98;0.60;;;26.00;99.90;;;;;;4969483;28;20178;-74
2021/06/28 11:06:18;;;;;;;1.30;0.80;;;26.50;99.90;;;;;;5004138;28;20722;-74
2021/06/28 11:08:57;;;;;;;1.17;0.80;;;26.60;99.90;;;;;;4994234;28;20288;-74
2021/06/28 11:11:41;;;;;;;1.30;0.85;;;26.60;99.90;;;;;;5009101;28;20246;-74
2021/06/28 11:14:06;;;;;;;1.40;0.85;;;26.70;99.90;;;;;;4994351;28;20192;-74
2021/06/28 11:16:32;;;;;;;1.20;0.70;;;26.80;99.90;;;;;;5008317;28;20687;-74
2021/06/28 11:18:58;;;;;;;1.35;0.98;;;27.10;99.90;;;;;;5009214;28;20172;-75
2021/06/28 11:21:38;;;;;;;1.52;0.70;;;27.10;99.90;;;;;;4992445;28;20211;-74
2021/06/28 11:24:03;;;;;;;1.38;0.70;;;27.00;99.90;;;;;;5008893;28;20176;-75
2021/06/28 11:26:35;;;;;;;1.15;0.80;;;26.90;99.90;;;;;;4993726;28;20196;-74
2021/06/28 11:29:01;;;;;;;1.35;0.80;;;27.10;99.90;;;;;;4992678;28;20219;-74
2021/06/28 11:31:31;;;;;;;1.13;0.70;;;27.00;99.90;;;;;;5008980;28;20215;-73
2021/06/28 11:33:58;;;;;;;0.73;0.68;;;27.00;99.90;;;;;;5008754;28;20173;-73
2021/06/28 11:36:24;;;;;;;0.68;0.55;;;27.10;99.90;;;;;;5008101;28;20196;-73
2021/06/28 11:38:53;;;;;;;0.65;0.50;;;27.00;99.90;;;;;;4988746;28;20686;-74
2021/06/28 11:41:22;;;;;;;0.68;0.68;;;26.90;99.90;;;;;;5006734;28;20180;-73
2021/06/28 11:43:58;;;;;;;0.98;0.80;;;26.80;99.90;;;;;;4998017;28;20547;-73
2021/06/28 11:46:30;;;;;;;0.75;0.60;;;26.90;99.90;;;;;;5005971;28;20192;-73
2021/06/28 11:49:08;;;;;;;0.75;0.55;;;26.80;99.90;;;;;;4990549;28;20203;-73
2021/06/28 11:51:38;;;;;;;1.27;0.65;;;26.70;99.90;;;;;;5006901;28;20196;-73
2021/06/28 11:54:11;;;;;;;0.52;0.43;;;26.70;99.90;;;;;;4992175;28;20182;-73
2021/06/28 11:56:37;;;;;;;2.83;0.70;;;26.70;99.90;;;;;;4983607;28;20577;-73
2021/06/28 11:59:09;;;;;;;1.30;0.80;;;26.90;99.90;;;;;;4990196;28;20192;-73
2021/06/28 12:01:35;;;;;;;1.67;0.70;;;26.80;99.90;;;;;;4978743;28;20184;-73
2021/06/28 12:04:05;;;;;;;1.13;0.73;;;26.80;99.90;;;;;;5008278;28;20172;-73
2021/06/28 12:06:33;;;;;;;2.88;0.80;;;26.80;99.90;;;;;;4991427;28;20726;-73
2021/06/28 12:09:03;;;;;;;1.40;0.88;;;26.80;99.90;;;;;;5008254;28;20671;-73
2021/06/28 12:11:28;;;;;;;0.95;0.80;;;26.70;99.90;;;;;;5008058;28;20651;-73
2021/06/28 12:13:54;;;;;;;1.02;0.80;;;26.60;99.90;;;;;;4991688;28;20179;-73
2021/06/28 12:16:21;;;;;;;0.50;0.45;;;26.40;99.90;;;;;;5007838;28;20203;-73
2021/06/28 12:18:47;;;;;;;1.00;0.77;;;26.20;99.90;;;;;;5007999;28;20184;-73
2021/06/28 12:21:24;;;;;;;1.17;0.80;;;26.10;99.90;;;;;;5007791;28;20207;-73
2021/06/28 12:24:01;;;;;;;0.80;0.60;;;26.00;99.90;;;;;;5000296;28;20184;-73
2021/06/28 12:26:26;;;;;;;1.13;0.60;;;25.90;99.90;;;;;;4998119;28;20192;-73
2021/06/28 12:28:52;;;;;;;0.50;0.50;;;25.70;99.90;;;;;;4982967;28;20703;-75
2021/06/28 12:31:17;;;;;;;0.70;0.60;;;25.60;99.90;;;;;;4991596;28;20659;-73
2021/06/28 12:33:43;;;;;;;1.80;0.82;;;25.50;99.90;;;;;;5008024;28;20669;-72
2021/06/28 12:36:08;;;;;;;1.27;0.63;;;25.50;99.90;;;;;;5007993;28;20196;-73
2021/06/28 12:38:35;;;;;;;1.17;0.85;;;25.60;99.90;;;;;;4992688;28;20853;-74
2021/06/28 12:41:00;;;;;;;1.48;0.88;;;25.40;99.90;;;;;;4980435;28;20688;-74
2021/06/28 12:43:26;;;;;;;1.02;0.60;;;25.50;99.90;;;;;;5004284;28;20204;-73
2021/06/28 12:45:52;;;;;;;1.10;0.60;;;25.30;99.90;;;;;;5007410;28;20231;-74
2021/06/28 12:48:36;;;;;;;1.08;0.60;;;25.20;99.90;;;;;;5005120;28;20204;-73